Time;durP1;ratioP1;P1;durP2;ratioP2;P2;SDS_P1;SDS_P2;PMS_P1;PMS_P2;Temp;Humidity;BMP_temperature;BMP_pressure;BME280_temperature;BME280_humidity;BME280_pressure;Samples;Min_cycle;Max_cycle;Signal;HPM_P1;HPM_P2
2024/01/16 00:02:42;;;;;;;0.10;0.10;;;;;;;1.20;100.00;98251.59;5024091;28;20463;-52
2024/01/16 00:05:29;;;;;;;0.07;0.07;;;;;;;1.21;100.00;98260.25;5032715;28;20208;-51
2024/01/16 00:08:16;;;;;;;0.10;0.10;;;;;;;1.32;100.00;98269.34;5032661;28;20185;-52
2024/01/16 00:11:03;;;;;;;0.00;0.00;;;;;;;1.26;100.00;98261.78;5030859;28;20336;-52
2024/01/16 00:13:52;;;;;;;0.10;0.10;;;;;;;1.40;100.00;98258.59;4992096;28;20191;-52
2024/01/16 00:16:43;;;;;;;0.10;0.10;;;;;;;1.30;100.00;98267.72;4993231;28;20194;-52
2024/01/16 00:19:30;;;;;;;0.00;0.00;;;;;;;1.24;100.00;98268.81;5030178;28;20228;-52
2024/01/16 00:22:17;;;;;;;0.10;0.10;;;;;;;1.47;100.00;98274.84;5011069;28;20234;-51
2024/01/16 00:25:05;;;;;;;0.10;0.10;;;;;;;1.41;100.00;98276.78;4993202;28;20198;-52
2024/01/16 00:27:51;;;;;;;0.00;0.00;;;;;;;1.37;100.00;98267.41;4993151;28;20206;-51
2024/01/16 00:30:39;;;;;;;0.10;0.10;;;;;;;1.40;100.00;98279.47;4992970;28;20222;-52
2024/01/16 00:33:27;;;;;;;0.00;0.00;;;;;;;1.24;100.00;98279.22;5032335;28;20209;-51
2024/01/16 00:36:14;;;;;;;0.10;0.10;;;;;;;1.31;100.00;98270.25;5032411;28;20310;-52
2024/01/16 00:39:02;;;;;;;0.10;0.10;;;;;;;1.27;100.00;98273.91;5032359;28;20204;-51
2024/01/16 00:41:49;;;;;;;0.10;0.10;;;;;;;1.25;100.00;98270.50;5019303;28;20197;-51
2024/01/16 00:44:36;;;;;;;0.10;0.10;;;;;;;1.29;100.00;98268.63;4991626;28;20202;-52
2024/01/16 00:47:24;;;;;;;0.10;0.10;;;;;;;1.28;100.00;98278.22;4992961;28;20302;-51
2024/01/16 00:50:11;;;;;;;0.07;0.07;;;;;;;1.31;100.00;98285.91;5006236;28;20209;-52
2024/01/16 00:52:58;;;;;;;0.10;0.10;;;;;;;1.35;100.00;98284.00;5022065;28;20327;-52
2024/01/16 00:55:45;;;;;;;0.10;0.10;;;;;;;1.34;100.00;98282.31;5035736;28;20710;-51
2024/01/16 00:58:32;;;;;;;0.10;0.10;;;;;;;1.36;100.00;98286.59;5034300;28;20192;-52
2024/01/16 01:01:19;;;;;;;0.00;0.00;;;;;;;1.27;100.00;98286.97;5031078;28;20220;-51
2024/01/16 01:04:07;;;;;;;0.10;0.10;;;;;;;1.34;100.00;98295.34;5035629;28;20236;-52
2024/01/16 01:06:54;;;;;;;0.10;0.10;;;;;;;1.15;100.00;98295.25;5035515;28;20549;-51
2024/01/16 01:09:41;;;;;;;0.00;0.00;;;;;;;1.05;100.00;98302.59;5035321;28;20224;-51
2024/01/16 01:12:28;;;;;;;0.00;0.00;;;;;;;0.94;100.00;98296.09;5022710;28;20225;-51
2024/01/16 01:15:15;;;;;;;0.10;0.10;;;;;;;0.87;100.00;98300.72;5014339;28;20197;-51
2024/01/16 01:18:02;;;;;;;0.00;0.00;;;;;;;0.91;100.00;98307.50;5015610;28;20201;-52
2024/01/16 01:20:50;;;;;;;0.10;0.10;;;;;;;0.88;100.00;98317.22;5015559;28;20294;-51
2024/01/16 01:23:37;;;;;;;0.10;0.10;;;;;;;1.04;100.00;98313.06;5035227;28;20201;-51
2024/01/16 01:26:24;;;;;;;0.10;0.10;;;;;;;0.99;100.00;98322.84;5034991;28;20192;-52
2024/01/16 01:29:11;;;;;;;0.10;0.10;;;;;;;0.98;100.00;98327.22;5033858;28;20192;-52
2024/01/16 01:31:58;;;;;;;0.10;0.10;;;;;;;0.99;100.00;98322.84;5034863;28;20228;-52
2024/01/16 01:34:45;;;;;;;0.10;0.10;;;;;;;0.88;100.00;98328.50;5034801;28;20730;-52
2024/01/16 01:37:33;;;;;;;0.10;0.10;;;;;;;0.89;100.00;98335.41;5034985;28;20252;-52
2024/01/16 01:40:20;;;;;;;0.00;0.00;;;;;;;1.00;100.00;98341.03;5034976;28;20205;-52
2024/01/16 01:43:20;;;;;;;0.10;0.10;;;;;;;0.95;100.00;98337.75;5034133;28;20205;-51
2024/01/16 01:46:11;;;;;;;0.10;0.10;;;;;;;0.86;100.00;98338.94;5034848;28;20286;-51
2024/01/16 01:48:57;;;;;;;0.10;0.10;;;;;;;0.81;100.00;98330.47;5034859;28;20192;-52
2024/01/16 01:51:45;;;;;;;0.10;0.10;;;;;;;0.90;100.00;98334.47;5034473;28;20260;-51
2024/01/16 01:54:36;;;;;;;0.10;0.10;;;;;;;0.95;100.00;98337.75;5034676;28;20192;-51
2024/01/16 01:57:23;;;;;;;0.10;0.10;;;;;;;0.87;100.00;98342.44;5034629;28;20283;-51
2024/01/16 02:00:11;;;;;;;0.10;0.10;;;;;;;0.79;100.00;98353.13;5033330;28;20714;-51
2024/01/16 02:02:57;;;;;;;0.10;0.10;;;;;;;0.86;100.00;98353.72;5034065;28;20293;-51
2024/01/16 02:05:45;;;;;;;0.10;0.10;;;;;;;0.96;100.00;98355.09;5034177;28;20259;-51
2024/01/16 02:08:33;;;;;;;0.10;0.10;;;;;;;0.92;100.00;98353.50;5034387;28;20197;-51
2024/01/16 02:11:21;;;;;;;0.10;0.10;;;;;;;0.98;100.00;98350.69;5034197;28;20339;-52
2024/01/16 02:14:08;;;;;;;0.10;0.10;;;;;;;0.96;100.00;98347.25;5033078;28;20197;-52
2024/01/16 02:16:55;;;;;;;0.00;0.00;;;;;;;0.96;100.00;98351.63;5034297;28;20205;-51
2024/01/16 02:19:42;;;;;;;0.10;0.10;;;;;;;0.97;100.00;98341.16;5033946;28;20201;-52
2024/01/16 02:22:33;;;;;;;0.10;0.10;;;;;;;0.98;100.00;98347.22;5034015;28;20196;-52
2024/01/16 02:25:21;;;;;;;0.10;0.10;;;;;;;1.00;100.00;98356.69;5034145;28;20679;-52
2024/01/16 02:28:08;;;;;;;0.10;0.10;;;;;;;1.00;100.00;98355.84;5033108;28;20668;-52
2024/01/16 02:30:55;;;;;;;0.10;0.10;;;;;;;1.11;100.00;98353.66;5033752;28;20259;-51
2024/01/16 02:33:41;;;;;;;0.10;0.10;;;;;;;1.14;100.00;98356.97;5014246;28;20680;-52
2024/01/16 02:36:29;;;;;;;0.00;0.00;;;;;;;1.13;100.00;98349.22;5014058;28;20240;-51
2024/01/16 02:39:16;;;;;;;0.10;0.10;;;;;;;1.09;100.00;98350.25;5014020;28;20205;-52
2024/01/16 02:42:04;;;;;;;0.10;0.10;;;;;;;1.15;100.00;98356.06;5020501;28;20291;-51
2024/01/16 02:44:50;;;;;;;0.00;0.00;;;;;;;1.06;100.00;98358.19;5032033;28;20240;-51
2024/01/16 02:47:37;;;;;;;0.00;0.00;;;;;;;1.09;100.00;98355.47;5013968;28;20201;-51
2024/01/16 02:50:24;;;;;;;0.07;0.07;;;;;;;1.01;100.00;98357.53;5013850;28;20210;-51
2024/01/16 02:53:11;;;;;;;0.10;0.10;;;;;;;1.00;100.00;98356.69;5028858;28;20272;-51
2024/01/16 02:55:59;;;;;;;0.10;0.10;;;;;;;1.00;100.00;98366.25;5033493;28;20260;-51
2024/01/16 02:58:47;;;;;;;0.00;0.00;;;;;;;1.01;100.00;98373.16;5032198;28;20197;-51
2024/01/16 03:01:34;;;;;;;0.07;0.07;;;;;;;1.08;100.00;98369.44;5033301;28;20259;-52
2024/01/16 03:04:21;;;;;;;0.10;0.10;;;;;;;1.35;100.00;98372.69;5033438;28;20197;-52
2024/01/16 03:07:07;;;;;;;0.10;0.10;;;;;;;1.32;100.00;98375.44;5033436;28;20256;-52
2024/01/16 03:09:54;;;;;;;0.10;0.10;;;;;;;1.43;100.00;98373.25;5033260;28;20197;-51
2024/01/16 03:12:41;;;;;;;0.10;0.10;;;;;;;1.26;100.00;98379.16;5010110;28;20225;-51
2024/01/16 03:15:30;;;;;;;0.00;0.00;;;;;;;1.48;100.00;98375.69;4993028;28;20261;-51
2024/01/16 03:18:17;;;;;;;0.10;0.10;;;;;;;1.33;100.00;98380.59;4993487;28;20198;-52
2024/01/16 03:21:05;;;;;;;0.10;0.10;;;;;;;1.23;100.00;98378.41;4993680;28;20198;-52
2024/01/16 03:23:51;;;;;;;0.10;0.10;;;;;;;1.14;100.00;98380.44;5033086;28;20232;-52
2024/01/16 03:26:39;;;;;;;0.10;0.10;;;;;;;1.07;100.00;98381.63;5033056;28;20240;-51
2024/01/16 03:29:25;;;;;;;0.10;0.10;;;;;;;0.94;100.00;98385.56;5031742;28;20571;-50
2024/01/16 03:32:14;;;;;;;0.10;0.10;;;;;;;1.09;100.00;98384.16;5018435;28;20209;-51
2024/01/16 03:35:00;;;;;;;0.00;0.00;;;;;;;0.84;100.00;98392.88;4993599;28;20206;-51
2024/01/16 03:37:47;;;;;;;0.00;0.00;;;;;;;0.86;100.00;98391.06;4993507;28;20198;-51
2024/01/16 03:40:34;;;;;;;0.10;0.10;;;;;;;0.88;100.00;98390.19;4993630;28;20672;-52
2024/01/16 03:43:21;;;;;;;0.10;0.10;;;;;;;0.88;100.00;98396.25;5025114;28;20265;-51
2024/01/16 03:46:11;;;;;;;0.10;0.10;;;;;;;0.92;100.00;98403.03;5032671;28;20280;-51
2024/01/16 03:48:59;;;;;;;0.00;0.00;;;;;;;0.96;100.00;98401.16;5032849;28;20311;-51
2024/01/16 03:51:46;;;;;;;0.10;0.10;;;;;;;0.79;100.00;98404.41;5026257;28;20299;-51
2024/01/16 03:54:33;;;;;;;0.10;0.10;;;;;;;0.93;100.00;98412.56;4993329;28;20246;-52
2024/01/16 03:57:20;;;;;;;0.10;0.10;;;;;;;1.01;100.00;98401.84;4993412;28;20222;-52
2024/01/16 04:00:12;;;;;;;0.10;0.10;;;;;;;0.86;100.00;98400.66;4992118;28;20206;-51
2024/01/16 04:02:59;;;;;;;0.10;0.10;;;;;;;0.78;100.00;98398.34;5020011;28;20228;-51
2024/01/16 04:05:48;;;;;;;0.10;0.10;;;;;;;0.78;100.00;98411.38;5032653;28;20197;-51
2024/01/16 04:08:35;;;;;;;0.10;0.10;;;;;;;0.72;100.00;98409.00;5032663;28;20270;-51
2024/01/16 04:11:22;;;;;;;0.10;0.10;;;;;;;0.66;100.00;98411.81;5032418;28;20193;-51
2024/01/16 04:14:09;;;;;;;0.10;0.10;;;;;;;0.67;100.00;98416.09;5011122;28;20225;-51
2024/01/16 04:16:56;;;;;;;0.00;0.00;;;;;;;0.59;100.00;98415.56;5012850;28;20198;-51
2024/01/16 04:19:42;;;;;;;0.10;0.10;;;;;;;0.70;100.00;98426.44;5012587;28;20198;-52
2024/01/16 04:22:30;;;;;;;0.07;0.07;;;;;;;0.64;100.00;98429.25;5021421;28;20189;-51
2024/01/16 04:25:17;;;;;;;0.10;0.10;;;;;;;0.66;100.00;98431.81;5032197;28;20204;-51
2024/01/16 04:28:04;;;;;;;0.00;0.00;;;;;;;0.73;100.00;98426.31;5032505;28;20205;-52
2024/01/16 04:30:51;;;;;;;0.07;0.07;;;;;;;0.77;100.00;98432.25;5036324;28;20197;-51
2024/01/16 04:33:38;;;;;;;0.10;0.10;;;;;;;0.85;100.00;98435.44;5036040;28;20216;-51
2024/01/16 04:36:25;;;;;;;0.10;0.10;;;;;;;0.86;100.00;98434.53;5035895;28;20193;-51
2024/01/16 04:39:14;;;;;;;0.10;0.10;;;;;;;0.82;100.00;98431.19;5036037;28;20200;-51
2024/01/16 04:42:00;;;;;;;0.10;0.10;;;;;;;0.82;100.00;98440.78;5036050;28;20317;-52
2024/01/16 04:44:47;;;;;;;0.10;0.10;;;;;;;0.78;100.00;98439.19;5034551;28;20244;-51
2024/01/16 04:47:34;;;;;;;0.10;0.10;;;;;;;0.74;100.00;98437.59;5036083;28;20267;-51
2024/01/16 04:50:21;;;;;;;0.10;0.10;;;;;;;0.78;100.00;98427.03;5035259;28;20232;-51
2024/01/16 04:53:08;;;;;;;0.10;0.10;;;;;;;0.76;100.00;98426.19;5035473;28;20216;-51
2024/01/16 04:55:56;;;;;;;0.10;0.10;;;;;;;0.93;100.00;98432.56;5035634;28;20261;-51
2024/01/16 04:58:43;;;;;;;0.07;0.07;;;;;;;0.83;100.00;98434.66;5034488;28;20201;-51
2024/01/16 05:01:30;;;;;;;0.10;0.10;;;;;;;0.74;100.00;98428.03;5035066;28;20197;-51
2024/01/16 05:04:18;;;;;;;0.10;0.10;;;;;;;0.79;100.00;98435.69;4996189;28;20198;-51
2024/01/16 05:07:05;;;;;;;0.10;0.10;;;;;;;0.82;100.00;98441.63;4996237;28;20198;-51
2024/01/16 05:09:52;;;;;;;0.03;0.03;;;;;;;0.75;100.00;98434.94;4995991;28;20206;-51
2024/01/16 05:12:40;;;;;;;0.07;0.07;;;;;;;0.79;100.00;98428.72;5014692;28;20299;-51
2024/01/16 05:15:27;;;;;;;0.10;0.10;;;;;;;0.71;100.00;98432.50;5034969;28;20196;-51
2024/01/16 05:18:14;;;;;;;0.10;0.10;;;;;;;0.74;100.00;98435.84;5035292;28;20189;-51
2024/01/16 05:21:02;;;;;;;0.00;0.00;;;;;;;0.77;100.00;98430.53;5035312;28;20197;-51
2024/01/16 05:23:48;;;;;;;0.10;0.10;;;;;;;1.00;100.00;98416.66;4998005;28;20189;-51
2024/01/16 05:26:36;;;;;;;0.10;0.10;;;;;;;0.80;100.00;98417.38;4995793;28;20646;-51
2024/01/16 05:29:25;;;;;;;0.00;0.00;;;;;;;0.81;100.00;98415.63;4994548;28;20259;-51
2024/01/16 05:32:12;;;;;;;0.00;0.00;;;;;;;0.86;100.00;98413.69;5006422;28;20200;-52
2024/01/16 05:34:59;;;;;;;0.10;0.10;;;;;;;0.87;100.00;98410.19;5034998;28;20193;-51
2024/01/16 05:37:46;;;;;;;0.10;0.10;;;;;;;0.75;100.00;98411.47;5035020;28;20200;-51
2024/01/16 05:40:33;;;;;;;0.00;0.00;;;;;;;0.75;100.00;98406.25;5034332;28;20365;-51
2024/01/16 05:43:20;;;;;;;0.10;0.10;;;;;;;0.88;100.00;98411.91;5004787;28;20202;-51
2024/01/16 05:46:08;;;;;;;0.00;0.00;;;;;;;0.93;100.00;98414.31;4995478;28;20229;-51
2024/01/16 05:48:55;;;;;;;0.00;0.00;;;;;;;0.84;100.00;98413.75;4995425;28;20202;-51
2024/01/16 05:51:42;;;;;;;0.00;0.00;;;;;;;0.91;100.00;98409.16;4997357;28;20469;-51
2024/01/16 05:54:29;;;;;;;0.10;0.10;;;;;;;0.92;100.00;98407.41;5034391;28;20283;-51
2024/01/16 05:57:16;;;;;;;0.10;0.10;;;;;;;0.90;100.00;98412.69;5034675;28;20216;-51
2024/01/16 06:00:04;;;;;;;0.10;0.10;;;;;;;0.83;100.00;98416.41;5033357;28;20196;-51
2024/01/16 06:02:55;;;;;;;0.10;0.10;;;;;;;0.95;100.00;98410.72;5013093;28;20226;-51
2024/01/16 06:05:42;;;;;;;0.00;0.00;;;;;;;0.96;100.00;98411.59;4995072;28;20556;-51
2024/01/16 06:08:29;;;;;;;0.10;0.10;;;;;;;0.98;100.00;98405.44;4995043;28;20210;-51
2024/01/16 06:11:16;;;;;;;0.10;0.10;;;;;;;0.99;100.00;98412.34;4994070;28;20752;-51
2024/01/16 06:14:03;;;;;;;0.10;0.10;;;;;;;0.87;100.00;98415.41;4993481;28;20732;-51
2024/01/16 06:16:51;;;;;;;0.10;0.10;;;;;;;0.84;100.00;98407.69;4994914;28;20198;-52
2024/01/16 06:19:39;;;;;;;0.10;0.10;;;;;;;0.98;100.00;98404.59;4994827;28;20205;-51
2024/01/16 06:22:26;;;;;;;0.00;0.00;;;;;;;0.96;100.00;98411.59;5001282;28;20252;-52
2024/01/16 06:25:13;;;;;;;0.00;0.00;;;;;;;1.11;100.00;98398.84;5014325;28;20221;-52
2024/01/16 06:28:00;;;;;;;0.00;0.00;;;;;;;1.06;100.00;98395.56;5022793;28;20683;-51
2024/01/16 06:30:49;;;;;;;0.00;0.00;;;;;;;1.09;100.00;98387.63;5033958;28;20679;-51
2024/01/16 06:33:36;;;;;;;0.10;0.10;;;;;;;1.01;100.00;98386.22;5002101;28;20724;-51
2024/01/16 06:36:24;;;;;;;0.10;0.10;;;;;;;0.79;100.00;98379.19;4994512;28;20201;-51
2024/01/16 06:39:13;;;;;;;0.10;0.10;;;;;;;0.88;100.00;98377.16;4994511;28;20685;-51
2024/01/16 06:42:00;;;;;;;0.10;0.10;;;;;;;0.81;100.00;98387.81;4999938;28;20200;-51
2024/01/16 06:44:47;;;;;;;0.00;0.00;;;;;;;0.63;100.00;98382.41;5031504;28;20188;-51
2024/01/16 06:47:34;;;;;;;0.10;0.10;;;;;;;0.66;100.00;98390.13;5013375;28;20201;-51
2024/01/16 06:50:21;;;;;;;0.00;0.00;;;;;;;0.76;100.00;98381.06;5013920;28;20264;-52
2024/01/16 06:53:09;;;;;;;0.10;0.10;;;;;;;0.92;100.00;98386.56;5013062;28;20598;-51
2024/01/16 06:55:56;;;;;;;0.00;0.00;;;;;;;0.81;100.00;98382.59;5021477;28;20201;-52
2024/01/16 06:58:43;;;;;;;0.10;0.10;;;;;;;0.59;100.00;98391.25;5032164;28;20196;-51
2024/01/16 07:01:30;;;;;;;0.10;0.10;;;;;;;0.62;100.00;98385.94;5033294;28;20209;-51
2024/01/16 07:04:17;;;;;;;0.10;0.10;;;;;;;0.76;100.00;98383.66;5013593;28;20241;-51
2024/01/16 07:07:04;;;;;;;0.10;0.10;;;;;;;0.52;100.00;98386.25;5013691;28;20201;-51
2024/01/16 07:09:52;;;;;;;0.10;0.10;;;;;;;0.57;100.00;98381.72;5013492;28;20583;-51
2024/01/16 07:12:39;;;;;;;0.10;0.10;;;;;;;0.44;100.00;98387.44;5020886;28;20193;-51
2024/01/16 07:15:25;;;;;;;0.10;0.10;;;;;;;0.40;100.00;98391.91;5032557;28;20216;-51
2024/01/16 07:18:12;;;;;;;0.10;0.10;;;;;;;0.57;100.00;98388.69;5033257;28;20197;-51
2024/01/16 07:20:59;;;;;;;0.10;0.10;;;;;;;0.64;100.00;98394.53;5033005;28;20256;-51
2024/01/16 07:23:46;;;;;;;0.10;0.10;;;;;;;0.60;100.00;98398.16;5000049;28;20664;-52
2024/01/16 07:26:35;;;;;;;0.00;0.00;;;;;;;0.76;100.00;98402.75;4993770;28;20210;-52
2024/01/16 07:29:21;;;;;;;0.10;0.10;;;;;;;0.71;100.00;98404.69;4992362;28;20217;-51
2024/01/16 07:32:10;;;;;;;0.10;0.10;;;;;;;0.71;100.00;98398.63;4999848;28;20718;-51
2024/01/16 07:34:57;;;;;;;0.00;0.00;;;;;;;0.47;100.00;98403.78;5032793;28;20240;-51
2024/01/16 07:37:44;;;;;;;0.07;0.07;;;;;;;0.54;100.00;98402.69;5032828;28;20247;-51
2024/01/16 07:40:31;;;;;;;0.00;0.00;;;;;;;0.35;100.00;98403.38;5033025;28;20259;-52
2024/01/16 07:43:19;;;;;;;0.00;0.00;;;;;;;0.55;100.00;98413.94;5006883;28;20462;-51
2024/01/16 07:46:06;;;;;;;0.10;0.10;;;;;;;0.43;100.00;98407.44;4993345;28;20298;-51
2024/01/16 07:48:53;;;;;;;0.10;0.10;;;;;;;0.63;100.00;98414.53;4992365;28;20284;-51
2024/01/16 07:51:40;;;;;;;0.10;0.10;;;;;;;0.53;100.00;98414.00;4993537;28;20322;-51
2024/01/16 07:54:27;;;;;;;0.10;0.10;;;;;;;0.69;100.00;98419.53;4993175;28;20237;-51
2024/01/16 07:57:14;;;;;;;0.10;0.10;;;;;;;0.56;100.00;98423.47;4993421;28;20688;-51
2024/01/16 08:00:03;;;;;;;0.00;0.00;;;;;;;0.72;100.00;98429.84;4992003;28;20282;-52
2024/01/16 08:02:50;;;;;;;0.10;0.10;;;;;;;0.89;100.00;98415.34;5013489;28;20220;-51
2024/01/16 08:05:37;;;;;;;0.00;0.00;;;;;;;0.88;100.00;98416.25;5036762;28;20200;-51
2024/01/16 08:08:24;;;;;;;0.10;0.10;;;;;;;1.08;100.00;98413.75;5036593;28;20204;-51
2024/01/16 08:11:11;;;;;;;0.00;0.00;;;;;;;1.03;100.00;98413.06;5036460;28;20197;-52
2024/01/16 08:13:58;;;;;;;0.00;0.00;;;;;;;1.01;100.00;98417.50;5035147;28;20275;-52
2024/01/16 08:16:46;;;;;;;0.00;0.00;;;;;;;1.13;100.00;98427.44;5036584;28;20189;-51
2024/01/16 08:19:33;;;;;;;0.00;0.00;;;;;;;1.20;100.00;98421.09;5036271;28;20221;-51
2024/01/16 08:22:21;;;;;;;0.03;0.03;;;;;;;1.17;100.00;98423.84;5032359;28;20198;-51
2024/01/16 08:25:08;;;;;;;0.00;0.00;;;;;;;1.43;100.00;98428.03;5022740;28;20193;-51
2024/01/16 08:27:54;;;;;;;0.00;0.00;;;;;;;1.52;100.00;98429.44;5035859;28;20271;-51
2024/01/16 08:30:42;;;;;;;0.00;0.00;;;;;;;1.56;100.00;98416.22;5036308;28;20205;-51
2024/01/16 08:33:30;;;;;;;0.07;0.07;;;;;;;1.82;100.00;98435.19;5023049;28;20232;-51
2024/01/16 08:36:28;;;;;;;0.10;0.10;;;;;;;1.86;100.00;98419.34;5016379;28;20198;-52
2024/01/16 08:39:16;;;;;;;0.00;0.00;;;;;;;1.99;100.00;98423.16;5016321;28;20256;-52
2024/01/16 08:42:03;;;;;;;0.10;0.10;;;;;;;1.75;100.00;98421.56;5017555;28;20201;-52
2024/01/16 08:44:50;;;;;;;0.10;0.10;;;;;;;1.46;100.00;98420.09;5034605;28;20319;-51
2024/01/16 08:47:37;;;;;;;0.10;0.10;;;;;;;1.35;100.00;98417.91;5028600;28;20775;-51
2024/01/16 08:50:25;;;;;;;0.00;0.00;;;;;;;1.27;100.00;98429.56;5016113;28;20205;-51
2024/01/16 08:53:12;;;;;;;0.00;0.00;;;;;;;1.33;100.00;98422.31;5026466;28;20212;-51
2024/01/16 08:55:59;;;;;;;0.00;0.00;;;;;;;1.37;100.00;98430.91;5035569;28;20229;-51
2024/01/16 08:58:46;;;;;;;0.00;0.00;;;;;;;1.50;100.00;98426.03;5034450;28;20201;-51
2024/01/16 09:01:33;;;;;;;0.00;0.00;;;;;;;1.53;100.00;98424.16;5020636;28;20196;-51
2024/01/16 09:04:20;;;;;;;0.00;0.00;;;;;;;1.53;100.00;98431.13;5035537;28;20197;-52
2024/01/16 09:07:08;;;;;;;0.00;0.00;;;;;;;1.60;100.00;98424.78;5035664;28;20265;-51
2024/01/16 09:09:55;;;;;;;0.00;0.00;;;;;;;1.63;100.00;98424.63;5035687;28;20205;-51
2024/01/16 09:12:42;;;;;;;0.00;0.00;;;;;;;1.81;100.00;98430.88;5035475;28;20212;-51
2024/01/16 09:15:29;;;;;;;0.10;0.10;;;;;;;2.11;100.00;98420.94;5034252;28;20217;-52
2024/01/16 09:18:16;;;;;;;0.10;0.10;;;;;;;2.03;100.00;98423.00;5035309;28;20192;-52
2024/01/16 09:21:04;;;;;;;0.00;0.00;;;;;;;1.84;100.00;98418.56;5035417;28;20193;-52
2024/01/16 09:23:52;;;;;;;0.03;0.03;;;;;;;1.85;100.00;98415.06;5019834;28;20201;-52
2024/01/16 09:26:39;;;;;;;0.10;0.10;;;;;;;1.94;100.00;98419.06;5015556;28;20236;-51
2024/01/16 09:29:27;;;;;;;0.10;0.10;;;;;;;1.98;100.00;98428.44;5014026;28;20197;-52
2024/01/16 09:32:13;;;;;;;0.10;0.10;;;;;;;2.05;100.00;98426.44;5017385;28;20196;-52
2024/01/16 09:35:02;;;;;;;0.00;0.00;;;;;;;2.10;100.00;98427.06;5035005;28;20286;-51
2024/01/16 09:37:50;;;;;;;0.00;0.00;;;;;;;2.26;100.00;98428.16;5035169;28;20667;-51
2024/01/16 09:40:38;;;;;;;0.00;0.00;;;;;;;2.05;100.00;98434.28;5034992;28;20200;-52
2024/01/16 09:43:27;;;;;;;0.10;0.10;;;;;;;2.26;100.00;98431.59;5021870;28;20317;-51
2024/01/16 09:46:16;;;;;;;0.07;0.07;;;;;;;2.20;100.00;98425.78;5015020;28;20185;-52
2024/01/16 09:49:03;;;;;;;0.10;0.10;;;;;;;2.27;100.00;98428.06;5015098;28;20193;-52
2024/01/16 09:51:50;;;;;;;0.10;0.10;;;;;;;2.34;100.00;98426.06;5015069;28;20197;-52
2024/01/16 09:54:37;;;;;;;0.00;0.00;;;;;;;2.51;100.00;98428.81;5034653;28;20220;-52
2024/01/16 09:57:27;;;;;;;0.10;0.10;;;;;;;2.52;100.00;98442.72;5034748;28;20189;-52
2024/01/16 10:00:14;;;;;;;0.07;0.07;;;;;;;2.40;100.00;98445.84;5033309;28;20197;-52
2024/01/16 10:03:01;;;;;;;0.03;0.03;;;;;;;2.44;100.00;98450.03;5026237;28;20229;-52
2024/01/16 10:05:49;;;;;;;0.00;0.00;;;;;;;2.67;100.00;98447.28;5014383;28;20305;-52
2024/01/16 10:08:37;;;;;;;0.10;0.10;;;;;;;2.81;100.00;98447.53;4999754;28;20201;-51
2024/01/16 10:11:24;;;;;;;0.10;0.10;;;;;;;2.94;100.00;98447.81;4999690;28;20198;-52
2024/01/16 10:14:13;;;;;;;0.10;0.10;;;;;;;3.17;100.00;98452.84;5030489;28;20200;-52
2024/01/16 10:17:02;;;;;;;0.00;0.00;;;;;;;3.74;100.00;98444.97;5034029;28;20219;-52
2024/01/16 10:19:51;;;;;;;0.10;0.10;;;;;;;4.07;100.00;98444.28;5034394;28;20197;-52
2024/01/16 10:22:38;;;;;;;0.10;0.10;;;;;;;4.15;100.00;98439.50;5029480;28;20193;-52
2024/01/16 10:25:25;;;;;;;0.10;0.10;;;;;;;4.94;100.00;98434.59;5014223;28;20281;-52
2024/01/16 10:28:12;;;;;;;0.10;0.10;;;;;;;4.47;100.00;98432.66;5013082;28;20581;-52
2024/01/16 10:31:04;;;;;;;0.00;0.00;;;;;;;4.39;100.00;98433.03;4999266;28;20200;-52
2024/01/16 10:33:52;;;;;;;0.10;0.10;;;;;;;3.71;100.00;98435.50;5028294;28;20205;-52
2024/01/16 10:36:40;;;;;;;0.00;0.00;;;;;;;3.34;100.00;98430.31;4994274;28;20704;-52
2024/01/16 10:39:26;;;;;;;0.10;0.10;;;;;;;3.08;100.00;98439.34;4994275;28;20194;-52
2024/01/16 10:42:26;;;;;;;0.03;0.03;;;;;;;2.90;100.00;98440.19;5005533;28;20956;-52
2024/01/16 10:45:19;;;;;;;0.10;0.10;;;;;;;2.95;100.00;98432.97;5012843;28;20197;-52
2024/01/16 10:48:09;;;;;;;0.10;0.10;;;;;;;2.68;100.00;98430.66;5013886;28;20240;-52
2024/01/16 10:50:56;;;;;;;0.10;0.10;;;;;;;2.34;100.00;98427.81;5013941;28;20220;-52
2024/01/16 10:53:45;;;;;;;0.03;0.03;;;;;;;2.31;100.00;98426.16;5026891;28;20188;-52
2024/01/16 10:56:32;;;;;;;0.00;0.00;;;;;;;2.21;100.00;98428.31;5030851;28;20233;-52
2024/01/16 10:59:25;;;;;;;0.10;0.10;;;;;;;2.23;100.00;98421.28;4992815;28;20198;-52
2024/01/16 11:02:15;;;;;;;0.00;0.00;;;;;;;2.44;100.00;98419.53;5001259;28;20229;-52
2024/01/16 11:05:05;;;;;;;0.00;0.00;;;;;;;2.52;100.00;98412.22;5032810;28;20196;-52
2024/01/16 11:07:56;;;;;;;0.10;0.10;;;;;;;2.77;100.00;98408.50;5033473;28;20232;-52
2024/01/16 11:10:44;;;;;;;0.07;0.07;;;;;;;3.01;100.00;98399.56;5033192;28;20296;-52
2024/01/16 11:13:34;;;;;;;0.10;0.10;;;;;;;3.34;100.00;98391.91;5031983;28;20212;-52
2024/01/16 11:16:23;;;;;;;0.10;0.10;;;;;;;3.09;100.00;98404.44;5033156;28;20255;-52
2024/01/16 11:19:11;;;;;;;0.07;0.07;;;;;;;2.84;100.00;98409.94;5033052;28;20267;-52
2024/01/16 11:22:20;;;;;;;0.00;0.00;;;;;;;2.96;100.00;98395.44;5032239;28;20269;-52
2024/01/16 11:25:11;;;;;;;0.10;0.10;;;;;;;3.19;100.00;98394.41;5013238;28;20197;-52
2024/01/16 11:28:09;;;;;;;0.10;0.10;;;;;;;2.98;100.00;98381.38;5012023;28;20233;-52
2024/01/16 11:30:56;;;;;;;0.00;0.00;;;;;;;3.17;100.00;98383.97;5013222;28;20277;-53
2024/01/16 11:33:43;;;;;;;0.10;0.10;;;;;;;3.20;100.00;98380.41;5025419;28;20228;-52
2024/01/16 11:36:51;;;;;;;0.10;0.10;;;;;;;3.40;100.00;98383.78;5032794;28;20216;-52
2024/01/16 11:39:41;;;;;;;0.00;0.00;;;;;;;3.34;100.00;98373.59;5032867;28;20188;-52
2024/01/16 11:42:28;;;;;;;0.07;0.07;;;;;;;3.16;100.00;98358.75;5030671;28;20487;-52
2024/01/16 11:45:48;;;;;;;0.10;0.10;;;;;;;3.62;100.00;98346.09;5012209;28;20201;-52
2024/01/16 11:48:38;;;;;;;0.00;0.00;;;;;;;4.35;99.68;98352.03;5013122;28;20213;-52
2024/01/16 11:51:26;;;;;;;0.10;0.10;;;;;;;4.77;92.05;98349.75;5013317;28;20201;-52
2024/01/16 11:54:14;;;;;;;0.10;0.10;;;;;;;4.26;92.91;98346.31;5029142;28;20208;-52
2024/01/16 11:57:47;;;;;;;0.10;0.10;;;;;;;5.32;85.04;98345.91;5032575;28;20264;-53
2024/01/16 12:00:36;;;;;;;0.00;0.00;;;;;;;7.20;75.45;98338.16;5032570;28;20265;-53
2024/01/16 12:03:24;;;;;;;0.10;0.10;;;;;;;8.09;64.77;98337.63;5023005;28;20228;-53
2024/01/16 12:06:21;;;;;;;0.10;0.10;;;;;;;7.21;63.69;98339.84;5013053;28;20363;-52
2024/01/16 12:09:14;;;;;;;0.00;0.00;;;;;;;6.00;68.17;98331.47;5012850;28;20197;-53
2024/01/16 12:12:02;;;;;;;0.10;0.10;;;;;;;5.42;72.00;98332.16;5012995;28;20205;-53
2024/01/16 12:14:54;;;;;;;0.10;0.10;;;;;;;5.99;68.45;98327.16;5011643;28;20585;-52
2024/01/16 12:17:53;;;;;;;0.10;0.10;;;;;;;6.21;71.21;98315.38;5012701;28;20299;-53
2024/01/16 12:20:40;;;;;;;0.07;0.07;;;;;;;7.64;66.62;98306.31;5012962;28;20185;-53
2024/01/16 12:23:26;;;;;;;0.10;0.10;;;;;;;9.13;56.82;98302.22;5022101;28;20268;-53
2024/01/16 12:26:21;;;;;;;0.00;0.00;;;;;;;9.91;52.39;98296.47;5032571;28;20668;-53
2024/01/16 12:29:07;;;;;;;0.10;0.10;;;;;;;10.53;50.93;98291.72;5031287;28;20201;-53
2024/01/16 12:32:08;;;;;;;0.10;0.10;;;;;;;9.13;51.04;98303.06;5032405;28;20197;-53
2024/01/16 12:34:55;;;;;;;0.10;0.10;;;;;;;10.77;47.39;98309.28;5017573;28;20189;-52
2024/01/16 12:37:42;;;;;;;0.10;0.10;;;;;;;9.51;49.15;98311.81;5032125;28;20227;-53
2024/01/16 12:40:30;;;;;;;0.10;0.10;;;;;;;10.82;46.74;98305.34;5031621;28;20200;-52
2024/01/16 12:43:18;;;;;;;0.10;0.10;;;;;;;12.49;43.61;98289.81;5030990;28;20200;-52
2024/01/16 12:46:06;;;;;;;0.10;0.10;;;;;;;12.03;44.80;98283.09;5032376;28;20197;-53
2024/01/16 12:49:02;;;;;;;0.10;0.10;;;;;;;11.68;44.42;98271.91;5032993;28;20233;-53
2024/01/16 12:51:52;;;;;;;0.10;0.10;;;;;;;12.24;42.56;98261.84;5036008;28;20200;-53
2024/01/16 12:54:39;;;;;;;0.10;0.10;;;;;;;12.43;41.60;98252.28;5017206;28;20237;-53
2024/01/16 12:57:26;;;;;;;0.03;0.03;;;;;;;14.23;38.90;98239.56;5035181;28;20236;-53
2024/01/16 13:00:24;;;;;;;0.10;0.10;;;;;;;13.27;38.97;98240.44;5019848;28;20259;-53
2024/01/16 13:03:17;;;;;;;0.00;0.00;;;;;;;12.04;42.26;98247.59;5028566;28;20722;-53
2024/01/16 13:06:06;;;;;;;0.10;0.10;;;;;;;15.25;36.84;98223.59;5015830;28;20253;-53
2024/01/16 13:09:09;;;;;;;0.10;0.10;;;;;;;15.32;35.73;98224.63;5015798;28;20197;-53
2024/01/16 13:11:58;;;;;;;0.20;0.20;;;;;;;15.96;34.43;98214.75;5015757;28;20217;-53
2024/01/16 13:14:45;;;;;;;0.10;0.10;;;;;;;15.59;34.67;98220.22;5033582;28;20193;-53